15°C Temp
6°C Dewpoint
% Humidity
Temperature
19 KM/H
12 MPH
10 KTS
120°
East South
East

Wind Speed
Clear
Conditions
Pressure 1023.92 (hPa) - 30.24 (in)
Visibility 6.2 (mi) - 10.0 (km)

Current Conditions
YPPH
Location 20(km)
Metar :YPPH 121630Z 12010KT CAVOK 15/06 Q1024
Thu 13th May 00:30 am

Airport
  Metar Aviation API Data Provided by https://www.checkwx.com/ PHP scripts by weather34.com ©2021